Time;durP1;ratioP1;P1;durP2;ratioP2;P2;SDS_P1;SDS_P2;PMS_P1;PMS_P2;Temp;Humidity;BMP_temperature;BMP_pressure;BME280_temperature;BME280_humidity;BME280_pressure;Samples;Min_cycle;Max_cycle;Signal;HPM_P1;HPM_P2
2023/03/15 00:01:56;;;;;;;7.72;1.58;;;2.60;99.90;;;;;;5066942;28;20426;-70
2023/03/15 00:04:23;;;;;;;14.55;2.17;;;2.50;99.90;;;;;;5073229;28;20041;-70
2023/03/15 00:06:49;;;;;;;10.45;2.42;;;2.50;99.90;;;;;;5062190;28;20500;-71
2023/03/15 00:09:15;;;;;;;10.18;2.08;;;2.50;99.90;;;;;;5070519;28;20080;-70
2023/03/15 00:11:41;;;;;;;9.80;1.83;;;2.40;99.90;;;;;;5067476;28;20151;-71
2023/03/15 00:14:06;;;;;;;11.45;2.88;;;2.40;99.90;;;;;;5069083;28;20040;-70
2023/03/15 00:16:32;;;;;;;13.60;2.13;;;2.30;99.90;;;;;;5068339;28;20049;-70
2023/03/15 00:18:58;;;;;;;15.82;2.78;;;2.20;99.90;;;;;;5073223;28;20070;-70
2023/03/15 00:21:23;;;;;;;8.73;2.00;;;2.20;99.90;;;;;;5069547;28;20488;-70
2023/03/15 00:23:49;;;;;;;11.25;2.15;;;2.10;99.90;;;;;;5070843;28;20493;-70
2023/03/15 00:26:15;;;;;;;9.77;2.72;;;2.10;99.90;;;;;;5061255;28;20044;-70
2023/03/15 00:28:41;;;;;;;8.80;1.83;;;2.10;99.90;;;;;;5055868;28;20045;-70
2023/03/15 00:31:19;;;;;;;8.52;1.85;;;2.10;99.90;;;;;;5067873;28;20508;-70
2023/03/15 00:33:46;;;;;;;18.65;2.38;;;2.10;99.90;;;;;;5067683;28;20052;-71
2023/03/15 00:36:12;;;;;;;10.02;2.10;;;2.00;99.90;;;;;;5066847;28;20085;-71
2023/03/15 00:38:39;;;;;;;10.43;1.85;;;2.00;99.90;;;;;;5067911;28;20438;-71
2023/03/15 00:41:12;;;;;;;14.55;2.47;;;1.90;99.90;;;;;;5069396;28;20040;-71
2023/03/15 00:43:37;;;;;;;21.20;2.40;;;1.90;99.90;;;;;;5064791;28;20329;-70
2023/03/15 00:46:04;;;;;;;16.02;3.20;;;1.90;99.90;;;;;;5063073;28;20407;-70
2023/03/15 00:48:30;;;;;;;10.13;1.67;;;1.90;99.90;;;;;;5068053;28;20059;-70
2023/03/15 00:51:36;;;;;;;11.63;1.67;;;1.90;99.90;;;;;;5091567;27;20409;-70
2023/03/15 00:54:02;;;;;;;8.90;1.80;;;1.90;99.90;;;;;;5093175;28;20071;-70
2023/03/15 00:56:29;;;;;;;12.60;1.58;;;1.90;99.90;;;;;;5101521;28;20497;-70
2023/03/15 00:58:56;;;;;;;12.05;2.55;;;1.90;99.90;;;;;;5093736;28;20358;-70
2023/03/15 01:01:25;;;;;;;8.25;2.33;;;2.20;99.90;;;;;;5100676;28;20074;-70
2023/03/15 01:03:51;;;;;;;14.85;2.13;;;2.00;99.90;;;;;;5098444;28;20057;-70
2023/03/15 01:06:22;;;;;;;13.80;1.67;;;2.20;99.90;;;;;;5081849;28;20079;-70
2023/03/15 01:08:48;;;;;;;11.35;1.85;;;2.30;99.90;;;;;;5097627;28;20089;-70
2023/03/15 01:11:16;;;;;;;10.90;1.30;;;2.20;99.90;;;;;;5094080;28;20028;-70
2023/03/15 01:13:42;;;;;;;7.13;1.70;;;2.40;99.90;;;;;;5094981;28;20131;-70
2023/03/15 01:16:11;;;;;;;9.23;1.63;;;2.10;99.90;;;;;;5105036;28;20375;-70
2023/03/15 01:18:37;;;;;;;8.68;1.65;;;2.10;99.90;;;;;;5090769;28;20059;-70
2023/03/15 01:21:08;;;;;;;9.13;1.88;;;2.10;99.90;;;;;;5094382;28;20048;-70
2023/03/15 01:23:34;;;;;;;9.18;1.80;;;2.00;99.90;;;;;;5089028;28;20032;-70
2023/03/15 01:26:04;;;;;;;8.48;1.50;;;2.20;99.90;;;;;;5100213;28;20079;-70
2023/03/15 01:28:30;;;;;;;10.85;1.73;;;2.00;99.90;;;;;;5103262;28;20462;-70
2023/03/15 01:30:56;;;;;;;18.08;1.88;;;2.00;99.90;;;;;;5094383;28;20063;-70
2023/03/15 01:33:22;;;;;;;11.70;1.95;;;2.00;99.90;;;;;;5095723;28;20055;-70
2023/03/15 01:35:56;;;;;;;10.85;1.92;;;2.00;99.90;;;;;;5091616;28;20044;-71
2023/03/15 01:38:21;;;;;;;12.02;2.00;;;2.00;99.90;;;;;;5096027;28;20378;-70
2023/03/15 01:40:47;;;;;;;9.73;1.90;;;2.00;99.90;;;;;;5093041;28;20058;-70
2023/03/15 01:43:22;;;;;;;10.40;1.90;;;2.20;99.90;;;;;;5093593;28;20043;-70
2023/03/15 01:46:16;;;;;;;10.40;2.00;;;1.90;99.90;;;;;;5096175;28;20040;-70
2023/03/15 01:48:49;;;;;;;9.80;2.20;;;1.90;99.90;;;;;;5096754;28;20101;-70
2023/03/15 01:51:35;;;;;;;18.80;4.80;;;1.90;99.90;;;;;;5097533;28;20084;-70
2023/03/15 01:54:28;;;;;;;19.00;1.70;;;2.00;99.90;;;;;;5101820;28;20543;-70
2023/03/15 01:57:01;;;;;;;10.77;2.28;;;2.00;99.90;;;;;;5095539;28;20040;-70
2023/03/15 01:59:30;;;;;;;15.55;2.13;;;1.90;99.90;;;;;;5090255;28;20066;-70
2023/03/15 02:01:58;;;;;;;8.82;1.77;;;2.20;99.90;;;;;;5088174;28;20127;-70
2023/03/15 02:04:37;;;;;;;13.63;2.13;;;1.90;99.90;;;;;;5074096;28;20140;-70
2023/03/15 02:07:04;;;;;;;15.75;2.30;;;1.90;99.90;;;;;;5085216;28;20119;-70
2023/03/15 02:10:01;;;;;;;10.50;2.60;;;1.90;99.90;;;;;;5079520;28;20132;-71
2023/03/15 02:12:29;;;;;;;19.25;2.38;;;1.90;99.90;;;;;;5083211;28;20059;-70
2023/03/15 02:14:55;;;;;;;13.07;2.10;;;1.80;99.90;;;;;;5083879;28;20040;-71
2023/03/15 02:17:28;;;;;;;12.18;2.13;;;1.80;99.90;;;;;;5085801;28;20052;-70
2023/03/15 02:20:26;;;;;;;14.40;2.35;;;1.90;99.90;;;;;;5077314;28;20052;-70
2023/03/15 02:22:59;;;;;;;12.30;2.28;;;1.80;99.90;;;;;;5079088;28;20045;-70
2023/03/15 02:25:56;;;;;;;13.50;1.80;;;1.80;99.90;;;;;;5081658;28;20048;-70
2023/03/15 02:28:23;;;;;;;18.17;2.78;;;1.80;99.90;;;;;;5089968;28;20051;-70
2023/03/15 02:30:49;;;;;;;15.95;2.33;;;1.80;99.90;;;;;;5088710;28;20036;-70
2023/03/15 02:33:51;;;;;;;10.52;1.60;;;1.80;99.90;;;;;;5085473;28;20037;-70
2023/03/15 02:36:22;;;;;;;14.88;2.10;;;1.80;99.90;;;;;;5086845;28;20049;-70
2023/03/15 02:38:48;;;;;;;10.93;2.15;;;1.70;99.90;;;;;;5072734;28;20049;-70
2023/03/15 02:41:19;;;;;;;12.18;1.88;;;1.70;99.90;;;;;;5076279;28;20374;-70
2023/03/15 02:43:48;;;;;;;8.60;1.30;;;1.70;99.90;;;;;;5087729;28;20519;-71
2023/03/15 02:46:13;;;;;;;;;;;1.70;99.90;;;;;;5085988;28;20177;-70
2023/03/15 02:48:41;;;;;;;10.07;1.80;;;1.70;99.90;;;;;;5089551;28;19924;-71
2023/03/15 02:51:15;;;;;;;9.55;1.50;;;1.60;99.90;;;;;;5092916;28;20037;-71
2023/03/15 02:53:40;;;;;;;13.90;2.00;;;1.60;99.90;;;;;;5081606;28;20044;-71
2023/03/15 02:56:06;;;;;;;9.15;1.52;;;1.60;99.90;;;;;;5089881;28;20043;-70
2023/03/15 02:58:32;;;;;;;8.55;1.20;;;1.60;99.90;;;;;;5075856;28;20560;-71
2023/03/15 03:00:57;;;;;;;9.90;1.30;;;1.60;99.90;;;;;;5080020;28;20185;-70
2023/03/15 03:03:23;;;;;;;6.47;1.50;;;2.20;99.90;;;;;;5082955;28;20044;-70
2023/03/15 03:05:49;;;;;;;13.85;1.50;;;1.50;99.90;;;;;;5079675;28;20366;-70
2023/03/15 03:08:15;;;;;;;9.27;1.88;;;1.50;99.90;;;;;;5084322;28;20040;-70
2023/03/15 03:10:41;;;;;;;11.25;1.88;;;1.40;99.90;;;;;;5086220;28;20043;-71
2023/03/15 03:13:06;;;;;;;6.63;1.40;;;1.40;99.90;;;;;;5078881;28;20048;-71
2023/03/15 03:15:32;;;;;;;10.80;1.52;;;1.40;99.90;;;;;;5078856;28;20155;-71
2023/03/15 03:17:58;;;;;;;11.05;2.13;;;1.40;99.90;;;;;;5086612;28;20036;-70
2023/03/15 03:20:24;;;;;;;10.65;1.40;;;1.40;99.90;;;;;;5074508;28;20049;-70
2023/03/15 03:22:49;;;;;;;9.90;1.88;;;1.50;99.90;;;;;;5088658;28;20032;-70
2023/03/15 03:25:15;;;;;;;12.35;2.30;;;1.50;99.90;;;;;;5085586;28;20040;-70
2023/03/15 03:27:41;;;;;;;12.48;1.88;;;1.40;99.90;;;;;;5074394;28;20040;-71
2023/03/15 03:30:10;;;;;;;14.48;1.73;;;1.40;99.90;;;;;;5088851;28;20548;-70
2023/03/15 03:32:36;;;;;;;12.60;1.90;;;1.40;99.90;;;;;;5074751;28;20521;-71
2023/03/15 03:35:02;;;;;;;8.48;1.70;;;1.50;99.90;;;;;;5081382;28;20123;-70
2023/03/15 03:37:29;;;;;;;10.98;2.10;;;1.40;99.90;;;;;;5076071;28;20043;-70
2023/03/15 03:39:56;;;;;;;7.82;1.65;;;1.40;99.90;;;;;;5080637;28;20046;-70
2023/03/15 03:42:21;;;;;;;11.05;2.35;;;1.30;99.90;;;;;;5082296;28;20047;-70
2023/03/15 03:44:49;;;;;;;8.40;1.98;;;1.30;99.90;;;;;;5071991;28;20044;-70
2023/03/15 03:47:15;;;;;;;9.63;1.75;;;1.40;99.90;;;;;;5076886;28;20409;-70
2023/03/15 03:49:40;;;;;;;9.77;2.85;;;1.30;99.90;;;;;;5084294;28;20051;-71
2023/03/15 03:52:06;;;;;;;6.85;1.63;;;1.30;99.90;;;;;;5086133;28;20116;-70
2023/03/15 03:54:32;;;;;;;9.60;1.52;;;1.30;99.90;;;;;;5076559;28;20140;-70
2023/03/15 03:56:57;;;;;;;11.70;3.28;;;1.30;99.90;;;;;;5075419;28;20028;-71
2023/03/15 03:59:23;;;;;;;10.15;1.40;;;0.80;99.90;;;;;;5076893;28;20119;-70
2023/03/15 04:01:50;;;;;;;10.40;2.05;;;1.20;99.90;;;;;;5079424;28;20048;-70
2023/03/15 04:04:15;;;;;;;10.80;2.00;;;1.20;99.90;;;;;;5085957;28;20446;-71
2023/03/15 04:06:44;;;;;;;5.05;1.33;;;1.20;99.90;;;;;;5086102;28;20085;-71
2023/03/15 04:09:14;;;;;;;12.20;1.55;;;1.20;99.90;;;;;;5082105;28;20082;-71
2023/03/15 04:11:44;;;;;;;8.10;1.50;;;1.20;99.90;;;;;;5080297;28;20511;-70
2023/03/15 04:14:11;;;;;;;6.32;1.20;;;1.20;99.90;;;;;;5074343;28;20032;-71
2023/03/15 04:16:37;;;;;;;8.27;1.37;;;1.20;99.90;;;;;;5072661;28;20065;-70
2023/03/15 04:19:04;;;;;;;8.75;1.20;;;1.20;99.90;;;;;;5076290;28;20083;-71
2023/03/15 04:21:30;;;;;;;3.95;1.27;;;1.20;99.90;;;;;;5074345;28;20045;-70
2023/03/15 04:24:00;;;;;;;5.18;1.27;;;1.20;99.90;;;;;;5085372;28;20048;-70
2023/03/15 04:26:27;;;;;;;10.25;1.45;;;1.10;99.90;;;;;;5075807;28;20045;-70
2023/03/15 04:28:54;;;;;;;6.35;1.17;;;2.00;99.90;;;;;;5080400;28;20086;-70
2023/03/15 04:31:20;;;;;;;10.00;1.73;;;1.20;99.90;;;;;;5079621;28;20193;-70
2023/03/15 04:33:46;;;;;;;10.43;1.70;;;1.10;99.90;;;;;;5073653;28;20043;-70
2023/03/15 04:36:17;;;;;;;5.20;1.20;;;1.00;99.90;;;;;;5061060;28;20474;-71
2023/03/15 04:38:46;;;;;;;9.23;1.50;;;1.00;99.90;;;;;;5072430;28;20067;-71
2023/03/15 04:41:13;;;;;;;6.80;1.30;;;0.90;99.90;;;;;;5079407;28;20080;-70
2023/03/15 04:43:39;;;;;;;5.30;1.35;;;1.00;99.90;;;;;;5075606;28;20049;-70
2023/03/15 04:46:05;;;;;;;9.55;1.30;;;0.80;99.90;;;;;;5078316;28;20054;-70
2023/03/15 04:48:30;;;;;;;7.07;1.40;;;0.70;99.90;;;;;;5082063;28;20184;-71
2023/03/15 04:50:56;;;;;;;9.93;1.27;;;0.60;99.90;;;;;;5077032;28;20568;-76
2023/03/15 04:53:22;;;;;;;8.25;1.50;;;0.60;99.90;;;;;;5086017;28;20055;-70
2023/03/15 04:55:47;;;;;;;9.35;1.55;;;0.60;99.90;;;;;;5078419;28;20036;-70
2023/03/15 04:58:13;;;;;;;9.10;1.10;;;0.40;99.90;;;;;;5084622;28;20045;-70
2023/03/15 05:00:39;;;;;;;7.53;1.70;;;0.40;99.90;;;;;;5076895;28;20045;-70
2023/03/15 05:03:04;;;;;;;9.25;1.58;;;0.40;99.90;;;;;;5080002;28;20037;-70
2023/03/15 05:05:32;;;;;;;12.27;1.67;;;0.30;99.90;;;;;;5071960;28;20075;-70
2023/03/15 05:07:57;;;;;;;13.55;1.73;;;0.30;99.90;;;;;;5083331;28;20044;-70
2023/03/15 05:10:24;;;;;;;7.18;1.77;;;0.30;99.90;;;;;;5081451;28;20064;-69
2023/03/15 05:12:50;;;;;;;11.48;1.83;;;0.30;99.90;;;;;;5077108;28;20040;-70
2023/03/15 05:15:16;;;;;;;11.70;1.80;;;0.30;99.90;;;;;;5075007;28;20040;-70
2023/03/15 05:17:45;;;;;;;7.72;1.55;;;0.30;99.90;;;;;;5079360;28;20063;-70
2023/03/15 05:20:12;;;;;;;7.03;1.40;;;0.30;99.90;;;;;;5075539;28;20489;-70
2023/03/15 05:22:39;;;;;;;7.90;1.40;;;0.30;99.90;;;;;;5088303;28;20040;-70
2023/03/15 05:25:05;;;;;;;6.03;1.50;;;0.50;99.90;;;;;;5080298;28;20036;-70
2023/03/15 05:27:32;;;;;;;5.03;1.40;;;0.40;99.90;;;;;;5090655;28;20047;-70
2023/03/15 05:29:58;;;;;;;8.43;1.55;;;0.40;99.90;;;;;;5081653;28;20048;-70
2023/03/15 05:32:25;;;;;;;5.95;1.70;;;0.30;99.90;;;;;;5077076;28;20040;-70
2023/03/15 05:34:53;;;;;;;8.82;1.73;;;0.30;99.90;;;;;;5079598;28;20040;-70
2023/03/15 05:37:20;;;;;;;13.02;1.70;;;0.30;99.90;;;;;;5094166;28;20044;-70
2023/03/15 05:39:46;;;;;;;11.52;1.60;;;0.20;99.90;;;;;;5083628;28;20048;-70
2023/03/15 05:42:12;;;;;;;6.25;1.52;;;0.20;99.90;;;;;;5087036;28;20029;-70
2023/03/15 05:44:37;;;;;;;7.80;1.80;;;0.20;99.90;;;;;;5090700;28;20046;-70
2023/03/15 05:47:03;;;;;;;10.02;2.25;;;0.10;99.90;;;;;;5080547;28;20036;-70
2023/03/15 05:49:29;;;;;;;8.70;2.15;;;0.20;99.90;;;;;;5081237;28;20496;-70
2023/03/15 05:51:55;;;;;;;6.50;1.75;;;0.20;99.90;;;;;;5083016;28;20067;-70
2023/03/15 05:54:21;;;;;;;6.63;1.90;;;0.20;99.90;;;;;;5084399;28;20044;-71
2023/03/15 05:56:46;;;;;;;8.63;2.40;;;0.30;99.90;;;;;;5083500;28;20485;-70
2023/03/15 05:59:12;;;;;;;5.50;1.83;;;0.30;99.90;;;;;;5082460;28;20450;-70
2023/03/15 06:01:37;;;;;;;13.30;1.88;;;0.40;99.90;;;;;;5086158;28;20086;-70
2023/03/15 06:04:03;;;;;;;12.35;2.00;;;0.40;99.90;;;;;;5079829;28;20045;-70
2023/03/15 06:06:29;;;;;;;10.40;1.63;;;0.50;99.90;;;;;;5078042;28;20044;-70
2023/03/15 06:08:55;;;;;;;13.48;1.73;;;0.60;99.90;;;;;;5079397;28;20139;-69
2023/03/15 06:11:20;;;;;;;9.95;2.40;;;0.60;99.90;;;;;;5082601;28;20040;-70
2023/03/15 06:13:46;;;;;;;11.20;1.98;;;0.60;99.90;;;;;;5078518;28;20038;-70
2023/03/15 06:16:12;;;;;;;8.85;1.85;;;0.60;99.90;;;;;;5079687;28;20090;-70
2023/03/15 06:18:37;;;;;;;7.82;1.90;;;0.60;99.90;;;;;;5074551;28;20485;-70
2023/03/15 06:21:03;;;;;;;14.50;2.10;;;0.60;99.90;;;;;;5080627;28;20046;-70
2023/03/15 06:23:28;;;;;;;8.85;2.25;;;0.60;99.90;;;;;;5084716;28;20036;-70
2023/03/15 06:25:54;;;;;;;16.30;2.63;;;0.60;99.90;;;;;;5078927;28;20442;-70
2023/03/15 06:28:20;;;;;;;16.27;2.47;;;0.60;99.90;;;;;;5078159;28;20032;-70
2023/03/15 06:30:45;;;;;;;6.72;1.77;;;0.60;99.90;;;;;;5079087;28;20465;-70
2023/03/15 06:33:11;;;;;;;11.20;1.90;;;0.70;99.90;;;;;;5079067;28;20500;-69
2023/03/15 06:35:37;;;;;;;6.45;2.00;;;0.70;99.90;;;;;;5075820;28;20036;-69
2023/03/15 06:38:02;;;;;;;11.38;2.30;;;0.80;99.90;;;;;;5073505;28;20376;-69
2023/03/15 06:40:28;;;;;;;12.82;2.30;;;0.80;99.90;;;;;;5078593;28;20036;-69
2023/03/15 06:42:53;;;;;;;10.88;2.00;;;0.80;99.90;;;;;;5080375;28;20477;-70
2023/03/15 06:45:19;;;;;;;7.15;2.03;;;0.90;99.90;;;;;;5081327;28;20613;-69
2023/03/15 06:47:45;;;;;;;15.25;2.35;;;0.90;99.90;;;;;;5077546;28;20055;-69
2023/03/15 06:50:11;;;;;;;7.07;2.08;;;0.90;99.90;;;;;;5080035;28;20500;-69
2023/03/15 06:52:37;;;;;;;10.05;2.00;;;1.00;99.90;;;;;;5075581;28;20116;-71
2023/03/15 06:55:03;;;;;;;9.75;2.60;;;1.10;99.90;;;;;;5077530;28;20506;-69
2023/03/15 06:57:29;;;;;;;5.93;1.92;;;1.20;99.90;;;;;;5076048;28;20040;-69
2023/03/15 06:59:55;;;;;;;8.52;2.30;;;1.20;99.90;;;;;;5080269;28;20389;-69
2023/03/15 07:02:21;;;;;;;8.98;2.00;;;1.30;99.90;;;;;;5077400;28;20052;-69
2023/03/15 07:04:48;;;;;;;7.85;1.95;;;1.30;99.90;;;;;;5069510;28;20055;-69
2023/03/15 07:07:14;;;;;;;10.18;2.42;;;1.40;99.90;;;;;;5080412;28;20168;-70
2023/03/15 07:09:40;;;;;;;11.05;2.40;;;1.50;99.90;;;;;;5076599;28;20575;-70
2023/03/15 07:12:07;;;;;;;12.25;2.10;;;1.60;99.90;;;;;;5081268;28;20123;-70
2023/03/15 07:14:34;;;;;;;6.57;2.05;;;1.70;99.90;;;;;;5078311;28;20120;-70
2023/03/15 07:16:59;;;;;;;16.58;2.13;;;1.80;99.90;;;;;;5090508;28;20113;-70
2023/03/15 07:19:25;;;;;;;10.57;2.42;;;1.90;99.90;;;;;;5073885;28;20049;-70
2023/03/15 07:21:51;;;;;;;10.63;1.92;;;2.00;99.90;;;;;;5089685;28;20067;-70
2023/03/15 07:24:16;;;;;;;10.05;2.25;;;2.10;99.90;;;;;;5086034;28;20456;-70
2023/03/15 07:26:42;;;;;;;16.05;2.72;;;2.20;99.90;;;;;;5076746;28;20041;-70
2023/03/15 07:29:08;;;;;;;12.88;2.08;;;2.30;99.90;;;;;;5083006;28;20078;-70
2023/03/15 07:31:34;;;;;;;9.52;2.22;;;2.40;99.90;;;;;;5093758;28;20043;-70
2023/03/15 07:33:59;;;;;;;8.05;2.05;;;2.50;99.90;;;;;;5074076;28;20094;-70
2023/03/15 07:36:25;;;;;;;10.60;2.17;;;2.60;99.90;;;;;;5073069;28;20523;-70
2023/03/15 07:38:50;;;;;;;8.68;1.95;;;2.60;99.90;;;;;;5058917;28;20036;-71
2023/03/15 07:41:16;;;;;;;17.92;2.22;;;2.70;99.90;;;;;;5078672;28;20036;-70
2023/03/15 07:43:42;;;;;;;13.25;2.28;;;2.80;99.90;;;;;;5077799;28;20029;-70
2023/03/15 07:46:07;;;;;;;9.95;2.30;;;2.90;99.90;;;;;;5086191;28;20036;-69
2023/03/15 07:48:33;;;;;;;10.30;2.28;;;3.10;99.90;;;;;;5075937;28;20044;-70
2023/03/15 07:50:59;;;;;;;10.32;2.15;;;3.30;99.90;;;;;;5077169;28;20489;-70
2023/03/15 07:53:25;;;;;;;13.10;2.28;;;3.50;99.90;;;;;;5093640;28;20079;-70
2023/03/15 07:55:51;;;;;;;12.18;2.17;;;3.70;99.90;;;;;;5094332;28;20043;-70
2023/03/15 07:58:17;;;;;;;19.27;2.70;;;3.70;99.90;;;;;;5076472;28;20049;-70
2023/03/15 08:00:42;;;;;;;8.73;2.05;;;4.00;99.90;;;;;;5084424;28;20055;-70
2023/03/15 08:03:08;;;;;;;14.88;3.03;;;3.90;99.90;;;;;;5085761;28;20078;-69
2023/03/15 08:05:34;;;;;;;12.57;2.22;;;4.00;99.90;;;;;;5087756;28;20047;-70
2023/03/15 08:08:00;;;;;;;6.95;2.22;;;4.10;99.90;;;;;;5081131;28;20599;-70
2023/03/15 08:10:26;;;;;;;12.25;3.13;;;4.20;99.90;;;;;;5086211;28;20131;-69
2023/03/15 08:12:52;;;;;;;15.23;2.65;;;4.30;99.90;;;;;;5089652;28;20094;-69
2023/03/15 08:15:19;;;;;;;18.50;2.63;;;4.30;99.90;;;;;;5076222;28;20032;-69
2023/03/15 08:17:46;;;;;;;13.13;2.47;;;4.40;99.90;;;;;;5073619;28;20093;-69
2023/03/15 08:20:15;;;;;;;14.82;2.80;;;4.40;99.90;;;;;;5089954;28;20052;-69
2023/03/15 08:22:43;;;;;;;11.38;2.38;;;4.40;99.90;;;;;;5087901;28;20031;-69
2023/03/15 08:25:11;;;;;;;15.27;2.65;;;4.60;99.90;;;;;;5076257;28;20044;-69
2023/03/15 08:27:37;;;;;;;7.10;1.80;;;4.70;99.90;;;;;;5073981;28;20496;-70
2023/03/15 08:30:04;;;;;;;10.68;2.60;;;4.80;99.90;;;;;;5089773;28;20426;-70
2023/03/15 08:32:30;;;;;;;10.07;2.45;;;4.90;99.90;;;;;;5078942;28;20064;-71
2023/03/15 08:34:56;;;;;;;18.92;2.75;;;5.00;99.90;;;;;;5073641;28;20048;-69
2023/03/15 08:37:22;;;;;;;11.38;2.38;;;5.00;99.90;;;;;;5091014;28;20500;-70
2023/03/15 08:39:48;;;;;;;18.45;2.50;;;5.10;99.90;;;;;;5080567;28;20401;-70
2023/03/15 08:42:14;;;;;;;18.20;2.53;;;5.20;99.90;;;;;;5072748;28;20076;-71
2023/03/15 08:44:40;;;;;;;12.80;2.33;;;5.20;99.90;;;;;;5080042;28;20044;-70
2023/03/15 08:47:05;;;;;;;9.20;1.90;;;5.30;99.90;;;;;;5073261;28;20473;-70
2023/03/15 08:49:31;;;;;;;8.60;1.70;;;5.40;99.90;;;;;;5072891;28;20057;-70
2023/03/15 08:51:57;;;;;;;8.40;1.88;;;5.40;99.90;;;;;;5071970;28;20089;-70
2023/03/15 08:54:22;;;;;;;6.05;1.70;;;5.50;99.90;;;;;;5074855;28;20044;-69
2023/03/15 08:56:48;;;;;;;13.13;2.45;;;5.70;99.90;;;;;;5075039;28;20074;-69
2023/03/15 08:59:14;;;;;;;8.98;1.80;;;5.80;99.90;;;;;;5076199;28;20115;-69
2023/03/15 09:01:40;;;;;;;17.15;2.10;;;5.90;99.90;;;;;;5093290;28;20079;-69
2023/03/15 09:04:05;;;;;;;8.00;1.55;;;6.00;99.90;;;;;;5075985;28;20045;-70
2023/03/15 09:06:31;;;;;;;8.30;1.92;;;6.20;99.90;;;;;;5075661;28;20083;-69
2023/03/15 09:08:57;;;;;;;5.10;1.70;;;6.30;99.90;;;;;;5087962;28;20043;-69
2023/03/15 09:11:22;;;;;;;10.82;2.20;;;6.30;99.90;;;;;;5092899;28;20044;-69
2023/03/15 09:13:48;;;;;;;13.40;1.73;;;6.40;99.90;;;;;;5093580;28;20032;-70
2023/03/15 09:16:14;;;;;;;6.63;1.40;;;6.60;99.90;;;;;;5083137;28;20397;-70
2023/03/15 09:18:40;;;;;;;15.05;1.98;;;6.60;99.90;;;;;;5076414;28;20127;-70
2023/03/15 09:21:06;;;;;;;16.35;2.53;;;6.70;99.90;;;;;;5092983;28;20445;-70
2023/03/15 09:23:32;;;;;;;13.38;2.15;;;6.80;99.90;;;;;;5090866;28;20128;-70
2023/03/15 09:25:58;;;;;;;13.00;2.35;;;7.00;99.90;;;;;;5093930;28;20047;-69
2023/03/15 09:28:26;;;;;;;11.38;2.00;;;7.50;99.90;;;;;;5082088;28;20040;-70
2023/03/15 09:30:52;;;;;;;13.60;2.22;;;7.20;99.90;;;;;;5076146;28;20032;-70
2023/03/15 09:33:21;;;;;;;10.40;1.55;;;7.50;99.90;;;;;;5092776;28;20036;-69
2023/03/15 09:35:52;;;;;;;11.07;2.10;;;7.40;99.90;;;;;;5087273;28;20040;-69
2023/03/15 09:38:19;;;;;;;9.05;2.00;;;7.40;99.90;;;;;;5074625;28;20254;-69
2023/03/15 09:40:45;;;;;;;7.55;1.70;;;7.50;99.90;;;;;;5073893;28;20055;-70
2023/03/15 09:43:47;;;;;;;10.45;2.28;;;7.80;99.90;;;;;;5079176;28;20040;-70
2023/03/15 09:46:29;;;;;;;11.95;1.92;;;7.70;99.90;;;;;;5093960;28;20055;-70
2023/03/15 09:49:07;;;;;;;16.00;2.90;;;7.80;99.90;;;;;;5074866;28;20032;-71
2023/03/15 09:51:46;;;;;;;12.30;2.03;;;8.00;99.90;;;;;;5093217;28;20557;-71
2023/03/15 09:54:17;;;;;;;12.02;2.40;;;8.10;99.90;;;;;;5093568;28;20036;-70
2023/03/15 09:56:55;;;;;;;7.80;1.52;;;8.20;99.90;;;;;;5090465;28;20086;-70
2023/03/15 09:59:26;;;;;;;6.32;2.08;;;8.30;99.90;;;;;;5079229;28;20436;-72
2023/03/15 10:01:55;;;;;;;8.00;2.10;;;8.50;99.90;;;;;;5094392;28;20048;-72
2023/03/15 10:04:40;;;;;;;11.18;2.00;;;8.70;99.90;;;;;;5085953;28;20554;-71
2023/03/15 10:07:12;;;;;;;8.90;2.15;;;8.90;99.90;;;;;;5083497;28;20054;-72
2023/03/15 10:09:38;;;;;;;10.38;2.10;;;9.00;99.90;;;;;;5084272;28;20040;-72
2023/03/15 10:12:22;;;;;;;9.40;2.20;;;9.30;99.90;;;;;;5078915;28;20040;-70
2023/03/15 10:15:15;;;;;;;11.38;2.28;;;9.30;99.90;;;;;;5075969;28;20547;-71
2023/03/15 10:17:55;;;;;;;12.82;2.55;;;9.50;99.80;;;;;;5074301;28;20040;-69
2023/03/15 10:20:25;;;;;;;11.63;1.95;;;9.70;99.50;;;;;;5091692;28;20081;-71
2023/03/15 10:23:10;;;;;;;7.82;1.88;;;9.70;99.40;;;;;;5074373;28;20059;-71
2023/03/15 10:25:37;;;;;;;8.75;2.63;;;9.90;99.90;;;;;;5074608;28;20124;-71
2023/03/15 10:28:22;;;;;;;8.68;2.25;;;10.30;99.90;;;;;;5077687;28;20048;-70
2023/03/15 10:30:50;;;;;;;7.35;1.73;;;10.40;98.90;;;;;;5076654;28;20452;-70
2023/03/15 10:33:27;;;;;;;8.00;1.90;;;10.70;98.40;;;;;;5074357;28;20083;-71
2023/03/15 10:35:52;;;;;;;9.45;2.45;;;10.60;97.70;;;;;;5075102;28;20086;-72
2023/03/15 10:38:23;;;;;;;6.10;1.85;;;10.70;98.00;;;;;;5084090;28;20032;-72
2023/03/15 10:40:50;;;;;;;8.68;1.90;;;10.80;97.90;;;;;;5082447;28;20119;-71
2023/03/15 10:43:23;;;;;;;9.40;1.90;;;11.10;99.60;;;;;;5090301;28;20606;-72
2023/03/15 10:45:59;;;;;;;7.03;1.90;;;11.10;98.30;;;;;;5089549;28;20036;-72
2023/03/15 10:48:25;;;;;;;8.95;2.15;;;11.40;98.20;;;;;;5082034;28;20040;-71
2023/03/15 10:50:53;;;;;;;8.55;1.95;;;11.70;96.50;;;;;;5089250;28;20051;-71
2023/03/15 10:53:20;;;;;;;8.32;1.88;;;11.90;96.00;;;;;;5086059;28;20083;-71
2023/03/15 10:55:47;;;;;;;6.95;1.73;;;12.40;95.50;;;;;;5073642;28;20063;-71
2023/03/15 10:58:26;;;;;;;7.05;1.55;;;12.50;95.50;;;;;;5074297;28;20119;-71
2023/03/15 11:01:07;;;;;;;8.43;1.80;;;12.90;91.00;;;;;;5065960;28;20525;-71
2023/03/15 11:03:35;;;;;;;6.90;1.65;;;12.70;91.50;;;;;;5093254;28;20048;-71
2023/03/15 11:06:01;;;;;;;8.80;2.38;;;12.60;93.60;;;;;;5090423;28;20039;-71
2023/03/15 11:08:39;;;;;;;8.82;2.08;;;12.60;93.70;;;;;;5088016;28;20427;-71
2023/03/15 11:11:06;;;;;;;8.65;1.95;;;13.00;94.30;;;;;;5082336;28;21161;-71
2023/03/15 11:13:37;;;;;;;10.73;1.80;;;13.10;94.00;;;;;;5083952;28;20031;-71
2023/03/15 11:16:14;;;;;;;8.65;1.90;;;13.20;93.30;;;;;;5095835;28;20037;-71
2023/03/15 11:19:17;;;;;;;11.10;2.80;;;13.10;91.00;;;;;;5078520;28;20045;-71
2023/03/15 11:21:44;;;;;;;8.82;2.40;;;13.40;92.00;;;;;;5054105;28;20066;-71
2023/03/15 11:24:25;;;;;;;5.75;1.73;;;13.60;92.40;;;;;;5082687;28;20054;-71
2023/03/15 11:26:53;;;;;;;8.80;1.90;;;13.90;87.40;;;;;;5090524;28;20051;-71
2023/03/15 11:29:21;;;;;;;12.48;2.40;;;13.80;88.20;;;;;;5082829;28;20036;-71
2023/03/15 11:31:49;;;;;;;10.43;2.08;;;13.30;87.60;;;;;;5085048;28;20570;-71
2023/03/15 11:34:27;;;;;;;10.77;1.95;;;13.20;90.20;;;;;;5072482;28;20520;-71
2023/03/15 11:36:59;;;;;;;8.88;2.17;;;12.60;81.60;;;;;;5079194;28;20075;-72
2023/03/15 11:39:44;;;;;;;12.23;1.98;;;12.50;85.60;;;;;;5079724;28;20463;-72
2023/03/15 11:42:16;;;;;;;10.13;2.28;;;12.50;83.50;;;;;;5076339;28;20059;-72
2023/03/15 11:44:53;;;;;;;8.27;2.30;;;12.70;85.40;;;;;;5089098;28;20088;-72
2023/03/15 11:47:35;;;;;;;8.55;1.85;;;13.10;86.90;;;;;;5077848;28;20492;-72
2023/03/15 11:50:01;;;;;;;8.57;1.70;;;13.50;87.80;;;;;;5078061;28;20079;-72
2023/03/15 11:52:28;;;;;;;8.85;1.77;;;13.70;84.30;;;;;;5087783;28;20564;-72
2023/03/15 11:55:00;;;;;;;7.32;2.00;;;14.10;85.30;;;;;;5073891;28;20045;-72
2023/03/15 11:57:42;;;;;;;8.15;1.75;;;14.40;80.80;;;;;;5077554;28;20482;-72
2023/03/15 12:00:26;;;;;;;19.42;2.47;;;14.40;79.30;;;;;;5078781;28;20484;-72
2023/03/15 12:02:53;;;;;;;11.23;1.80;;;14.50;76.50;;;;;;5086514;28;20032;-72
2023/03/15 12:05:44;;;;;;;10.95;2.20;;;14.60;76.60;;;;;;5089198;28;20397;-72
2023/03/15 12:08:33;;;;;;;7.75;2.03;;;14.90;73.80;;;;;;5071785;28;20584;-72
2023/03/15 12:11:00;;;;;;;6.63;1.80;;;14.70;75.20;;;;;;5077142;28;20139;-72
2023/03/15 12:13:28;;;;;;;10.23;2.10;;;15.10;79.80;;;;;;5087115;28;20054;-72
2023/03/15 12:15:55;;;;;;;7.25;2.03;;;15.50;74.30;;;;;;5080422;28;20531;-72
2023/03/15 12:18:26;;;;;;;8.38;2.17;;;15.70;74.40;;;;;;5080641;28;20043;-72
2023/03/15 12:21:18;;;;;;;7.78;1.80;;;15.50;68.30;;;;;;5075266;28;20405;-72
2023/03/15 12:24:05;;;;;;;6.20;1.70;;;15.70;71.70;;;;;;5086801;28;20047;-72
2023/03/15 12:26:45;;;;;;;8.23;1.77;;;15.70;67.70;;;;;;5077829;28;20040;-72
2023/03/15 12:29:15;;;;;;;7.80;2.10;;;15.80;67.10;;;;;;5082582;28;20162;-72
2023/03/15 12:31:56;;;;;;;9.38;1.70;;;15.60;69.60;;;;;;5072905;28;20062;-72
2023/03/15 12:34:49;;;;;;;5.00;1.80;;;15.50;66.10;;;;;;5073035;28;20398;-72
2023/03/15 12:37:32;;;;;;;7.15;1.85;;;15.10;68.10;;;;;;5069788;28;20048;-72
2023/03/15 12:40:27;;;;;;;12.07;2.05;;;15.00;66.90;;;;;;5072750;28;20055;-71
2023/03/15 12:42:53;;;;;;;9.25;1.98;;;14.90;67.80;;;;;;5071994;28;20090;-72
2023/03/15 12:45:19;;;;;;;8.43;2.20;;;14.80;67.90;;;;;;5075660;28;20036;-72
2023/03/15 12:47:50;;;;;;;11.07;1.90;;;14.60;67.60;;;;;;5070444;28;20213;-72
2023/03/15 12:50:37;;;;;;;11.50;2.10;;;14.30;69.00;;;;;;5074853;28;20054;-72
2023/03/15 12:53:30;;;;;;;7.78;1.92;;;14.20;69.00;;;;;;5087257;28;20048;-72
2023/03/15 12:56:08;;;;;;;9.00;1.90;;;14.60;69.40;;;;;;5072582;28;20067;-72
2023/03/15 12:58:35;;;;;;;7.87;2.47;;;14.90;68.50;;;;;;5084935;28;20051;-72
2023/03/15 13:01:04;;;;;;;8.40;2.03;;;15.20;68.90;;;;;;5073631;28;20405;-73
2023/03/15 13:03:34;;;;;;;6.72;1.83;;;15.10;67.10;;;;;;5083511;28;20047;-72